createdAt,value
2022-08-19T00:02:27.060Z,65.35
2022-08-19T00:04:57.205Z,65.81
2022-08-19T00:07:27.314Z,66.02
2022-08-19T00:09:57.508Z,66.43
2022-08-19T00:12:27.734Z,66.20
2022-08-19T00:14:57.942Z,66.18
2022-08-19T00:17:28.218Z,66.16
2022-08-19T00:19:58.393Z,66.18
2022-08-19T00:22:29.469Z,66.06
2022-08-19T00:24:59.826Z,66.10
2022-08-19T00:27:32.488Z,66.09
2022-08-19T00:30:04.500Z,66.10
2022-08-19T00:32:35.428Z,65.85
2022-08-19T00:35:06.171Z,65.89
2022-08-19T00:37:37.055Z,65.97
2022-08-19T00:40:09.339Z,66.19
2022-08-19T00:42:39.667Z,66.02
2022-08-19T00:45:13.228Z,65.92
2022-08-19T00:47:43.352Z,65.93
2022-08-19T00:50:15.428Z,66.07
2022-08-19T00:52:46.573Z,66.05
2022-08-19T00:55:20.084Z,66.00
2022-08-19T00:57:56.565Z,65.95
2022-08-19T01:00:28.048Z,66.12
2022-08-19T01:02:59.033Z,66.17
2022-08-19T01:05:30.264Z,66.39
2022-08-19T01:08:01.393Z,66.36
2022-08-19T01:10:36.507Z,66.61
2022-08-19T01:13:07.112Z,66.54
2022-08-19T01:15:38.332Z,66.77
2022-08-19T01:18:10.184Z,66.76
2022-08-19T01:20:40.847Z,66.79
2022-08-19T01:23:12.251Z,66.89
2022-08-19T01:25:44.747Z,67.03
2022-08-19T01:28:20.015Z,67.09
2022-08-19T01:31:07.944Z,67.05
2022-08-19T01:33:38.503Z,67.21
2022-08-19T01:36:10.934Z,67.43
2022-08-19T01:38:44.229Z,67.32
2022-08-19T01:41:15.015Z,67.36
2022-08-19T01:44:10.006Z,67.38
2022-08-19T01:46:36.193Z,67.40
2022-08-19T01:49:07.495Z,67.38
2022-08-19T01:51:38.533Z,67.60
2022-08-19T01:54:10.721Z,67.72
2022-08-19T01:56:41.222Z,67.65
2022-08-19T01:59:12.654Z,67.55
2022-08-19T02:01:43.245Z,67.58
2022-08-19T02:04:13.681Z,67.68
2022-08-19T02:06:44.066Z,67.71
2022-08-19T02:09:14.306Z,68.04
2022-08-19T02:11:44.619Z,68.11
2022-08-19T02:14:14.866Z,68.26
2022-08-19T02:16:45.076Z,68.27
2022-08-19T02:19:15.229Z,68.27
2022-08-19T02:21:45.669Z,68.39
2022-08-19T02:24:15.846Z,68.29
2022-08-19T02:26:46.068Z,68.57
2022-08-19T02:29:16.210Z,68.41
2022-08-19T02:31:46.575Z,68.50
2022-08-19T02:34:16.844Z,68.59
2022-08-19T02:36:51.838Z,68.61
2022-08-19T02:39:22.645Z,68.57
2022-08-19T02:41:53.373Z,68.78
2022-08-19T02:44:30.930Z,68.72
2022-08-19T02:47:02.087Z,68.88
2022-08-19T02:49:34.719Z,69.00
2022-08-19T02:52:05.262Z,68.88
2022-08-19T02:54:35.485Z,68.95
2022-08-19T02:57:05.907Z,69.00
2022-08-19T02:59:36.217Z,69.01
2022-08-19T03:02:06.612Z,69.02
2022-08-19T03:04:36.807Z,69.01
2022-08-19T03:07:07.197Z,69.03
2022-08-19T03:09:41.583Z,69.06
2022-08-19T03:12:12.024Z,69.14
2022-08-19T03:14:42.415Z,69.19
2022-08-19T03:17:13.768Z,69.21
2022-08-19T03:19:44.479Z,69.31
2022-08-19T03:22:15.231Z,69.41
2022-08-19T03:24:45.510Z,69.38
2022-08-19T03:27:16.136Z,69.57
2022-08-19T03:29:46.993Z,69.55
2022-08-19T03:32:32.317Z,69.70
2022-08-19T03:35:03.950Z,69.67
2022-08-19T03:37:34.591Z,69.73
2022-08-19T03:40:05.837Z,69.81
2022-08-19T03:42:49.051Z,69.85
2022-08-19T03:45:20.729Z,69.76
2022-08-19T03:47:51.267Z,69.80
2022-08-19T03:50:21.863Z,69.67
2022-08-19T03:52:53.046Z,69.71
2022-08-19T03:55:23.424Z,69.72
2022-08-19T03:57:58.657Z,69.73
2022-08-19T04:00:29.623Z,69.94
2022-08-19T04:03:00.768Z,70.00
2022-08-19T04:05:31.684Z,70.05
2022-08-19T04:08:02.010Z,70.01
2022-08-19T04:10:32.543Z,70.13
2022-08-19T04:13:02.731Z,70.01
2022-08-19T04:15:37.126Z,69.90
2022-08-19T04:18:08.778Z,69.91
2022-08-19T04:20:43.057Z,69.86
2022-08-19T04:23:13.418Z,69.86
2022-08-19T04:25:45.006Z,70.02
2022-08-19T04:28:15.036Z,69.95
2022-08-19T04:30:48.763Z,70.16
2022-08-19T04:33:19.806Z,70.06
2022-08-19T04:36:01.220Z,69.98
2022-08-19T04:38:31.309Z,69.88
2022-08-19T04:41:19.182Z,69.95
2022-08-19T04:43:49.915Z,69.86
2022-08-19T04:46:39.670Z,69.78
2022-08-19T04:49:13.121Z,69.68
2022-08-19T04:51:45.895Z,69.47
2022-08-19T04:54:33.753Z,69.31
2022-08-19T04:57:08.035Z,69.21
2022-08-19T04:59:39.157Z,69.07
2022-08-19T05:02:10.216Z,68.81
2022-08-19T05:04:40.825Z,68.76
2022-08-19T05:07:13.204Z,68.62
2022-08-19T05:09:58.125Z,68.58
2022-08-19T05:12:29.897Z,68.42
2022-08-19T05:15:00.654Z,68.39
2022-08-19T05:17:36.058Z,68.23
2022-08-19T05:20:26.748Z,68.11
2022-08-19T05:22:57.226Z,67.83
2022-08-19T05:25:27.774Z,67.94
2022-08-19T05:27:57.927Z,67.89
2022-08-19T05:30:46.067Z,67.94
2022-08-19T05:33:16.856Z,67.97
2022-08-19T05:35:47.271Z,67.91
2022-08-19T05:38:17.350Z,68.01
2022-08-19T05:40:48.101Z,68.05
2022-08-19T05:43:18.512Z,68.09
2022-08-19T05:45:48.850Z,68.15
2022-08-19T05:48:21.939Z,68.05
2022-08-19T05:50:52.335Z,68.32
2022-08-19T05:53:22.952Z,68.26
2022-08-19T05:55:53.240Z,68.07
2022-08-19T05:58:23.587Z,68.15
2022-08-19T06:00:58.479Z,68.07
2022-08-19T06:03:29.187Z,67.81
2022-08-19T06:06:00.893Z,67.81
2022-08-19T06:08:34.329Z,67.66
2022-08-19T06:13:48.177Z,67.34
2022-08-19T06:16:22.887Z,67.15
2022-08-19T06:18:52.629Z,67.07
2022-08-19T06:21:22.796Z,66.91
2022-08-19T06:23:52.318Z,66.66
2022-08-19T06:26:21.538Z,66.69
2022-08-19T06:28:50.693Z,66.42
2022-08-19T06:31:21.286Z,66.13
2022-08-19T06:33:50.357Z,65.84
2022-08-19T06:36:25.261Z,65.64
2022-08-19T06:38:56.075Z,65.38
2022-08-19T06:41:24.562Z,65.23
2022-08-19T06:43:54.171Z,64.86
2022-08-19T06:46:24.860Z,64.73
2022-08-19T06:48:54.736Z,64.91
2022-08-19T06:51:24.517Z,64.60
2022-08-19T06:53:54.922Z,64.45
2022-08-19T06:56:31.402Z,63.93
2022-08-19T06:59:00.491Z,63.69
2022-08-19T07:01:29.314Z,63.78
2022-08-19T07:03:57.655Z,63.95
2022-08-19T07:06:43.587Z,63.53
2022-08-19T07:09:14.899Z,62.87
2022-08-19T07:11:48.637Z,63.15
2022-08-19T07:14:19.980Z,62.99
2022-08-19T07:16:50.650Z,62.84
2022-08-19T07:19:20.332Z,62.41
2022-08-19T07:21:50.511Z,62.45
2022-08-19T07:24:18.998Z,62.64
2022-08-19T07:26:51.805Z,62.48
2022-08-19T07:29:23.445Z,62.32
2022-08-19T07:31:53.327Z,62.13
2022-08-19T07:34:23.543Z,61.58
2022-08-19T07:36:52.953Z,61.79
2022-08-19T07:39:24.125Z,61.77
2022-08-19T07:41:52.891Z,61.64
2022-08-19T07:44:22.586Z,61.25
2022-08-19T07:46:54.180Z,60.90
2022-08-19T07:49:22.886Z,60.93
2022-08-19T07:51:53.538Z,60.55
2022-08-19T07:54:23.662Z,60.32
2022-08-19T07:56:53.089Z,59.76
2022-08-19T07:59:22.445Z,59.84
2022-08-19T08:01:51.769Z,60.02
2022-08-19T08:04:38.785Z,59.62
2022-08-19T08:07:31.596Z,59.09
2022-08-19T08:10:03.185Z,59.13
2022-08-19T08:12:41.615Z,59.06
2022-08-19T08:15:16.686Z,58.16
2022-08-19T08:17:49.513Z,57.28
2022-08-19T08:20:20.913Z,57.07
2022-08-19T08:23:08.173Z,57.16
2022-08-19T08:25:37.749Z,56.77
2022-08-19T08:28:09.694Z,56.81
2022-08-19T08:30:42.103Z,56.35
2022-08-19T08:35:47.759Z,54.24
2022-08-19T08:38:18.546Z,54.71
2022-08-19T08:40:50.258Z,55.16
2022-08-19T08:43:32.180Z,54.71
2022-08-19T08:46:04.942Z,54.71
2022-08-19T08:48:38.925Z,54.10
2022-08-19T08:51:12.922Z,54.31
2022-08-19T08:53:42.152Z,54.34
2022-08-19T08:56:13.463Z,54.25
2022-08-19T08:58:54.365Z,53.55
2022-08-19T09:01:22.960Z,53.17
2022-08-19T09:03:53.272Z,53.34
2022-08-19T09:06:29.620Z,53.64
2022-08-19T09:09:13.906Z,53.76
2022-08-19T09:11:51.820Z,53.41
2022-08-19T09:14:50.257Z,53.41
2022-08-19T09:17:21.346Z,53.37
2022-08-19T09:19:53.666Z,53.27
2022-08-19T09:22:25.439Z,51.90
2022-08-19T09:24:55.478Z,51.66
2022-08-19T09:27:42.476Z,51.95
2022-08-19T09:30:15.984Z,51.86
2022-08-19T09:32:45.718Z,51.63
2022-08-19T09:35:15.845Z,49.87
2022-08-19T09:37:44.987Z,49.91
2022-08-19T09:40:14.159Z,48.54
2022-08-19T09:42:49.935Z,48.52
2022-08-19T09:45:22.137Z,47.99
2022-08-19T09:47:52.311Z,47.80
2022-08-19T09:50:26.095Z,46.55
2022-08-19T09:52:57.322Z,46.36
2022-08-19T09:55:31.670Z,45.72
2022-08-19T09:58:02.242Z,45.54
2022-08-19T10:00:34.987Z,43.66
2022-08-19T10:03:03.528Z,43.44
2022-08-19T10:05:50.230Z,43.24
2022-08-19T10:08:20.988Z,42.67
2022-08-19T10:10:49.534Z,42.60
2022-08-19T10:13:26.186Z,41.38
2022-08-19T10:15:56.229Z,41.29
2022-08-19T10:18:26.350Z,41.81
2022-08-19T10:21:08.213Z,40.79
2022-08-19T10:23:38.531Z,40.68
2022-08-19T10:26:07.613Z,41.11
2022-08-19T10:28:37.757Z,40.78
2022-08-19T10:31:08.723Z,40.32
2022-08-19T10:33:53.618Z,40.33
2022-08-19T10:36:24.589Z,40.46
2022-08-19T10:38:58.458Z,39.67
2022-08-19T10:41:29.413Z,39.98
2022-08-19T10:44:04.416Z,40.31
2022-08-19T10:46:35.153Z,39.97
2022-08-19T10:49:06.971Z,38.57
2022-08-19T10:51:54.642Z,38.51
2022-08-19T10:54:33.312Z,37.92
2022-08-19T10:57:03.039Z,37.46
2022-08-19T10:59:35.861Z,37.59
2022-08-19T11:02:10.258Z,38.11
2022-08-19T11:04:39.032Z,38.23
2022-08-19T11:07:08.760Z,37.58
2022-08-19T11:09:40.331Z,37.76
2022-08-19T11:12:09.983Z,36.96
2022-08-19T11:14:41.171Z,36.69
2022-08-19T11:17:11.362Z,36.65
2022-08-19T11:19:39.818Z,36.45
2022-08-19T11:22:10.514Z,37.06
2022-08-19T11:24:43.129Z,36.71
2022-08-19T11:27:11.895Z,36.39
2022-08-19T11:29:40.501Z,36.85
2022-08-19T11:32:10.806Z,36.01
2022-08-19T11:34:40.062Z,35.51
2022-08-19T11:37:09.336Z,34.92
2022-08-19T11:39:38.415Z,34.76
2022-08-19T11:42:22.686Z,35.56
2022-08-19T11:44:51.179Z,35.78
2022-08-19T11:47:19.709Z,34.84
2022-08-19T11:49:50.492Z,35.21
2022-08-19T11:52:18.900Z,35.65
2022-08-19T11:54:47.485Z,35.98
2022-08-19T11:57:17.566Z,35.13
2022-08-19T11:59:50.952Z,34.39
2022-08-19T12:02:19.951Z,33.26
2022-08-19T12:04:48.268Z,33.30
2022-08-19T12:07:16.711Z,33.71
2022-08-19T12:09:45.021Z,33.51
2022-08-19T12:12:14.558Z,33.84
2022-08-19T12:14:42.967Z,33.95
2022-08-19T12:17:12.004Z,33.41
2022-08-19T12:19:40.385Z,33.22
2022-08-19T12:22:09.530Z,32.84
2022-08-19T12:24:38.229Z,33.17
2022-08-19T12:27:06.442Z,33.11
2022-08-19T12:29:42.131Z,33.25
2022-08-19T12:32:12.143Z,33.05
2022-08-19T12:34:41.776Z,32.22
2022-08-19T12:37:11.738Z,32.59
2022-08-19T12:39:42.165Z,32.88
2022-08-19T12:42:11.204Z,32.85
2022-08-19T12:44:41.607Z,32.83
2022-08-19T12:47:11.791Z,33.01
2022-08-19T12:49:53.122Z,33.30
2022-08-19T12:52:24.096Z,32.89
2022-08-19T12:54:54.319Z,32.62
2022-08-19T12:57:31.732Z,33.22
2022-08-19T13:00:01.949Z,32.84
2022-08-19T13:02:38.887Z,32.34
2022-08-19T13:05:11.701Z,32.09
2022-08-19T13:07:41.482Z,32.31
2022-08-19T13:10:18.439Z,31.83
2022-08-19T13:12:48.918Z,32.06
2022-08-19T13:15:23.717Z,31.54
2022-08-19T13:17:56.009Z,31.79
2022-08-19T13:20:25.225Z,31.52
2022-08-19T13:22:53.633Z,31.72
2022-08-19T13:25:22.515Z,31.90
2022-08-19T13:27:52.396Z,31.77
2022-08-19T13:30:40.566Z,31.88
2022-08-19T13:33:16.130Z,31.69
2022-08-19T13:35:47.588Z,31.24
2022-08-19T13:38:16.961Z,31.96
2022-08-19T13:40:47.539Z,31.65
2022-08-19T13:43:22.772Z,31.43
2022-08-19T13:45:55.721Z,31.27
2022-08-19T13:48:25.421Z,31.68
2022-08-19T13:50:54.615Z,31.38
2022-08-19T13:53:23.513Z,30.91
2022-08-19T13:55:53.973Z,31.59
2022-08-19T13:58:23.089Z,30.99
2022-08-19T14:00:51.443Z,30.83
2022-08-19T14:03:20.130Z,30.80
2022-08-19T14:05:48.581Z,31.33
2022-08-19T14:08:16.889Z,31.53
2022-08-19T14:10:45.879Z,30.84
2022-08-19T14:13:17.670Z,30.26
2022-08-19T14:15:47.775Z,31.01
2022-08-19T14:18:16.234Z,30.61
2022-08-19T14:20:44.641Z,30.52
2022-08-19T14:23:14.199Z,30.56
2022-08-19T14:25:42.502Z,30.31
2022-08-19T14:28:10.742Z,30.49
2022-08-19T14:30:40.081Z,30.49
2022-08-19T14:33:09.243Z,30.48
2022-08-19T14:35:37.964Z,30.20
2022-08-19T14:38:07.675Z,30.12
2022-08-19T14:40:35.917Z,30.41
2022-08-19T14:43:05.592Z,30.62
2022-08-19T14:45:36.562Z,30.35
2022-08-19T14:48:05.488Z,30.68
2022-08-19T14:50:34.152Z,30.40
2022-08-19T14:53:07.964Z,30.48
2022-08-19T14:55:43.437Z,30.30
2022-08-19T14:58:29.639Z,30.67
2022-08-19T15:01:00.370Z,31.06
2022-08-19T15:03:29.977Z,30.96
2022-08-19T15:05:58.280Z,31.07
2022-08-19T15:08:27.508Z,30.97
2022-08-19T15:10:56.687Z,31.17
2022-08-19T15:13:25.695Z,31.35
2022-08-19T15:15:54.385Z,31.29
2022-08-19T15:18:22.922Z,31.49
2022-08-19T15:20:51.594Z,31.65
2022-08-19T15:23:21.238Z,31.62
2022-08-19T15:25:52.462Z,31.60
2022-08-19T15:28:20.673Z,31.82
2022-08-19T15:30:50.445Z,31.81
2022-08-19T15:33:20.185Z,31.86
2022-08-19T15:35:51.091Z,32.28
2022-08-19T15:38:21.745Z,31.81
2022-08-19T15:40:50.723Z,31.85
2022-08-19T15:43:21.162Z,31.46
2022-08-19T15:45:50.718Z,31.60
2022-08-19T15:48:19.252Z,31.62
2022-08-19T15:50:47.646Z,31.58
2022-08-19T15:53:16.943Z,31.57
2022-08-19T15:55:47.899Z,30.98
2022-08-19T15:58:35.124Z,31.05
2022-08-19T16:01:27.016Z,30.89
2022-08-19T16:04:16.336Z,30.40
2022-08-19T16:06:46.777Z,30.50
2022-08-19T16:09:15.821Z,30.45
2022-08-19T16:11:46.302Z,30.85
2022-08-19T16:14:15.941Z,30.79
2022-08-19T16:16:46.169Z,31.24
2022-08-19T16:19:16.793Z,31.23
2022-08-19T16:21:46.874Z,31.25
2022-08-19T16:24:17.231Z,31.42
2022-08-19T16:26:46.227Z,31.69
2022-08-19T16:29:33.248Z,31.84
2022-08-19T16:32:02.778Z,32.05
2022-08-19T16:34:31.698Z,32.25
2022-08-19T16:37:02.030Z,32.62
2022-08-19T16:39:30.547Z,32.95
2022-08-19T16:41:59.533Z,33.43
2022-08-19T16:44:29.713Z,33.64
2022-08-19T16:46:59.681Z,34.45
2022-08-19T16:49:53.387Z,34.97
2022-08-19T16:52:19.408Z,35.31
2022-08-19T16:54:48.193Z,35.69
2022-08-19T16:57:16.533Z,35.93
2022-08-19T16:59:49.250Z,36.26
2022-08-19T17:02:19.281Z,36.77
2022-08-19T17:04:58.066Z,37.02
2022-08-19T17:07:27.872Z,37.38
2022-08-19T17:09:56.389Z,37.88
2022-08-19T17:12:31.580Z,38.31
2022-08-19T17:15:02.167Z,38.80
2022-08-19T17:17:31.089Z,38.80
2022-08-19T17:20:00.124Z,39.05
2022-08-19T17:22:28.548Z,39.29
2022-08-19T17:24:58.124Z,39.84
2022-08-19T17:27:32.485Z,39.86
2022-08-19T17:30:02.112Z,40.45
2022-08-19T17:32:33.744Z,40.93
2022-08-19T17:35:03.965Z,41.13
2022-08-19T17:37:33.598Z,41.39
2022-08-19T17:40:03.641Z,41.72
2022-08-19T17:42:32.179Z,42.15
2022-08-19T17:45:00.524Z,42.48
2022-08-19T17:47:29.256Z,42.52
2022-08-19T17:49:58.210Z,42.91
2022-08-19T17:52:27.062Z,43.36
2022-08-19T17:54:55.898Z,43.20
2022-08-19T17:57:24.311Z,43.38
2022-08-19T17:59:52.852Z,43.98
2022-08-19T18:02:21.930Z,44.18
2022-08-19T18:04:51.172Z,44.75
2022-08-19T18:07:21.052Z,44.70
2022-08-19T18:09:52.650Z,44.72
2022-08-19T18:12:24.386Z,45.00
2022-08-19T18:14:52.921Z,45.28
2022-08-19T18:17:22.775Z,45.65
2022-08-19T18:19:51.270Z,46.00
2022-08-19T18:22:26.092Z,45.86
2022-08-19T18:24:54.906Z,46.25
2022-08-19T18:27:23.654Z,46.49
2022-08-19T18:29:54.010Z,46.50
2022-08-19T18:32:25.170Z,46.56
2022-08-19T18:34:54.361Z,46.56
2022-08-19T18:37:25.400Z,46.72
2022-08-19T18:40:12.039Z,46.74
2022-08-19T18:43:01.529Z,46.90
2022-08-19T18:45:48.346Z,47.31
2022-08-19T18:48:46.160Z,47.28
2022-08-19T18:51:15.671Z,47.61
2022-08-19T18:53:46.501Z,47.69
2022-08-19T18:56:17.322Z,47.64
2022-08-19T18:58:45.908Z,47.97
2022-08-19T19:01:17.254Z,48.15
2022-08-19T19:03:48.676Z,48.13
2022-08-19T19:06:21.344Z,48.56
2022-08-19T19:08:50.904Z,48.50
2022-08-19T19:11:24.336Z,48.46
2022-08-19T19:13:51.759Z,48.58
2022-08-19T19:16:24.443Z,48.78
2022-08-19T19:18:53.135Z,48.55
2022-08-19T19:21:24.063Z,48.75
2022-08-19T19:23:53.507Z,48.79
2022-08-19T19:26:22.744Z,48.89
2022-08-19T19:28:51.135Z,48.83
2022-08-19T19:31:22.599Z,48.94
2022-08-19T19:33:51.287Z,48.96
2022-08-19T19:36:19.630Z,48.96
2022-08-19T19:38:49.025Z,49.08
2022-08-19T19:41:22.813Z,49.09
2022-08-19T19:44:09.862Z,49.31
2022-08-19T19:46:42.393Z,49.32
2022-08-19T19:49:11.019Z,49.58
2022-08-19T19:51:39.845Z,49.46
2022-08-19T19:54:13.102Z,49.64
2022-08-19T19:56:44.825Z,49.52
2022-08-19T19:59:13.178Z,49.63
2022-08-19T20:01:45.657Z,49.64
2022-08-19T20:04:14.335Z,49.58
2022-08-19T20:06:43.510Z,49.75
2022-08-19T20:09:16.295Z,50.07
2022-08-19T20:11:49.345Z,50.36
2022-08-19T20:14:24.279Z,50.37
2022-08-19T20:16:54.295Z,50.50
2022-08-19T20:19:25.923Z,50.54
2022-08-19T20:21:56.738Z,50.64
2022-08-19T20:24:28.154Z,50.60
2022-08-19T20:26:56.615Z,50.80
2022-08-19T20:29:38.969Z,50.83
2022-08-19T20:32:10.598Z,51.24
2022-08-19T20:34:39.902Z,51.25
2022-08-19T20:37:08.605Z,51.44
2022-08-19T20:39:37.353Z,51.53
2022-08-19T20:42:06.518Z,51.84
2022-08-19T20:44:35.143Z,52.05
2022-08-19T20:47:04.273Z,52.38
2022-08-19T20:49:32.799Z,52.09
2022-08-19T20:52:01.815Z,52.24
2022-08-19T20:54:31.501Z,52.18
2022-08-19T20:57:02.197Z,52.27
2022-08-19T20:59:30.609Z,52.53
2022-08-19T21:01:59.089Z,52.64
2022-08-19T21:04:27.448Z,52.49
2022-08-19T21:06:55.971Z,52.68
2022-08-19T21:09:24.549Z,52.50
2022-08-19T21:11:53.125Z,52.94
2022-08-19T21:14:22.221Z,52.90
2022-08-19T21:16:50.530Z,53.02
2022-08-19T21:19:23.693Z,53.07
2022-08-19T21:21:53.129Z,53.32
2022-08-19T21:24:21.474Z,53.39
2022-08-19T21:26:54.944Z,53.69
2022-08-19T21:29:23.191Z,53.70
2022-08-19T21:31:51.490Z,53.95
2022-08-19T21:34:19.992Z,54.07
2022-08-19T21:36:48.563Z,53.86
2022-08-19T21:39:16.873Z,53.90
2022-08-19T21:41:45.592Z,54.13
2022-08-19T21:44:16.099Z,54.11
2022-08-19T21:46:44.855Z,54.41
2022-08-19T21:49:19.995Z,54.65
2022-08-19T21:51:48.268Z,54.51
2022-08-19T21:54:16.600Z,54.79
2022-08-19T21:56:45.014Z,54.93
2022-08-19T21:59:13.307Z,55.19
2022-08-19T22:01:46.011Z,55.30
2022-08-19T22:04:17.389Z,55.90
2022-08-19T22:06:46.294Z,55.69
2022-08-19T22:09:14.647Z,55.74
2022-08-19T22:11:44.102Z,55.67
2022-08-19T22:14:12.399Z,55.75
2022-08-19T22:16:41.504Z,55.93
2022-08-19T22:19:10.132Z,55.96
2022-08-19T22:21:40.300Z,55.96
2022-08-19T22:24:09.914Z,56.08
2022-08-19T22:26:38.622Z,56.06
2022-08-19T22:29:06.952Z,56.17
2022-08-19T22:31:36.926Z,56.33
2022-08-19T22:34:06.069Z,56.52
2022-08-19T22:36:35.118Z,56.68
2022-08-19T22:39:04.213Z,56.78
2022-08-19T22:41:33.671Z,56.89
2022-08-19T22:44:03.251Z,57.10
2022-08-19T22:46:33.853Z,57.13
2022-08-19T22:49:02.188Z,57.01
2022-08-19T22:51:49.106Z,57.04
2022-08-19T22:54:19.656Z,57.12
2022-08-19T22:56:51.405Z,57.00
2022-08-19T22:59:19.821Z,57.06
2022-08-19T23:01:48.175Z,56.98
2022-08-19T23:04:17.079Z,56.95
2022-08-19T23:06:45.407Z,56.98
2022-08-19T23:09:16.718Z,56.98
2022-08-19T23:11:46.627Z,56.98
2022-08-19T23:14:16.314Z,56.97
2022-08-19T23:16:50.427Z,57.03
2022-08-19T23:19:20.654Z,57.02
2022-08-19T23:21:49.682Z,57.12
2022-08-19T23:24:17.916Z,57.10
2022-08-19T23:27:01.029Z,57.14
2022-08-19T23:29:49.986Z,57.26
2022-08-19T23:32:18.886Z,57.27
2022-08-19T23:34:47.811Z,57.32
2022-08-19T23:37:16.242Z,57.36
2022-08-19T23:39:45.255Z,57.41
2022-08-19T23:42:14.076Z,57.36
2022-08-19T23:44:51.485Z,57.31
2022-08-19T23:47:21.042Z,57.41
2022-08-19T23:49:50.094Z,57.49
2022-08-19T23:52:18.476Z,57.58
2022-08-19T23:54:47.200Z,57.86
2022-08-19T23:57:15.482Z,58.04
2022-08-19T23:59:44.819Z,58.25
